Time;durP1;ratioP1;P1;durP2;ratioP2;P2;SDS_P1;SDS_P2;PMS_P1;PMS_P2;Temp;Humidity;BMP_temperature;BMP_pressure;BME280_temperature;BME280_humidity;BME280_pressure;Samples;Min_cycle;Max_cycle;Signal;HPM_P1;HPM_P2
2023/01/24 08:16:00;;;;;;;3.33;3.03;;;5.50;65.80;;;;;;5205690;22;20472;-74
2023/01/24 08:18:26;;;;;;;3.92;3.13;;;5.50;65.80;;;;;;5084601;28;20546;-78
2023/01/24 08:20:55;;;;;;;4.20;3.75;;;5.60;66.60;;;;;;5078282;28;20029;-79
2023/01/24 08:23:21;;;;;;;4.25;3.50;;;5.60;67.30;;;;;;5068638;28;20047;-76
2023/01/24 08:25:46;;;;;;;3.97;3.58;;;5.70;67.70;;;;;;5068382;28;20474;-71
2023/01/24 08:28:12;;;;;;;4.40;3.55;;;5.80;67.90;;;;;;5077437;28;20047;-77
2023/01/24 08:30:37;;;;;;;4.40;3.60;;;6.00;68.10;;;;;;5084336;28;20462;-78
2023/01/24 08:33:05;;;;;;;5.22;3.50;;;6.10;68.20;;;;;;5076650;28;20404;-77
2023/01/24 08:35:31;;;;;;;3.95;3.55;;;6.20;68.00;;;;;;5083536;28;20118;-78
2023/01/24 08:37:57;;;;;;;5.07;3.70;;;6.30;68.10;;;;;;5080919;28;20100;-78
2023/01/24 08:40:23;;;;;;;4.25;3.70;;;6.30;68.00;;;;;;5079573;28;20108;-76
2023/01/24 08:42:49;;;;;;;4.65;3.40;;;6.40;67.90;;;;;;5077930;28;20091;-77
2023/01/24 08:45:15;;;;;;;4.13;3.35;;;6.50;67.90;;;;;;5080318;28;20032;-78
2023/01/24 08:47:40;;;;;;;3.63;3.33;;;6.60;67.80;;;;;;5077834;28;20392;-77
2023/01/24 08:50:07;;;;;;;4.70;3.70;;;6.60;67.70;;;;;;5080808;28;20495;-76
2023/01/24 08:52:33;;;;;;;4.90;4.15;;;6.70;67.60;;;;;;5085523;28;20071;-77
2023/01/24 08:54:58;;;;;;;3.88;3.47;;;6.70;67.50;;;;;;5078446;28;20459;-79
2023/01/24 08:57:24;;;;;;;5.05;3.58;;;6.80;67.40;;;;;;5079939;28;20052;-77
2023/01/24 08:59:49;;;;;;;4.55;3.65;;;6.80;67.40;;;;;;5070063;28;20028;-74
2023/01/24 09:02:16;;;;;;;4.60;3.58;;;6.80;67.30;;;;;;5074533;28;20039;-80
2023/01/24 09:04:42;;;;;;;4.43;3.47;;;6.80;67.20;;;;;;5089079;28;20032;-78
2023/01/24 09:07:08;;;;;;;4.55;4.05;;;6.90;67.20;;;;;;5090086;28;20020;-78
2023/01/24 09:09:34;;;;;;;4.07;3.33;;;6.90;67.10;;;;;;5089879;28;20016;-77
2023/01/24 09:12:00;;;;;;;4.18;3.65;;;6.90;67.00;;;;;;5080886;28;21366;-77
2023/01/24 09:14:25;;;;;;;4.43;3.28;;;6.90;66.90;;;;;;5086749;28;20040;-76
2023/01/24 09:16:51;;;;;;;5.80;4.30;;;7.00;66.90;;;;;;5069777;28;20059;-77
2023/01/24 09:19:17;;;;;;;3.80;3.40;;;7.00;66.90;;;;;;5053592;28;20090;-77
2023/01/24 09:21:43;;;;;;;5.18;3.53;;;7.00;66.80;;;;;;5047865;28;20079;-75
2023/01/24 09:24:09;;;;;;;4.10;3.63;;;7.00;66.80;;;;;;5049078;28;20067;-75
2023/01/24 09:26:35;;;;;;;4.40;3.65;;;7.00;66.70;;;;;;5038810;28;20061;-77
2023/01/24 09:29:00;;;;;;;5.75;3.90;;;7.10;66.70;;;;;;5035748;28;20033;-79
2023/01/24 09:31:26;;;;;;;3.83;3.42;;;7.10;66.60;;;;;;5042380;28;20024;-75
2023/01/24 09:33:52;;;;;;;4.60;3.78;;;7.10;66.50;;;;;;5070833;28;20128;-74
2023/01/24 09:36:17;;;;;;;4.05;3.28;;;7.10;66.50;;;;;;5056008;28;20451;-75
2023/01/24 09:38:43;;;;;;;4.00;3.42;;;7.10;66.50;;;;;;5055122;28;20463;-74
2023/01/24 09:41:35;;;;;;;4.18;3.70;;;7.10;66.40;;;;;;5039163;28;20087;-73
2023/01/24 09:44:21;;;;;;;3.90;3.50;;;7.20;66.20;;;;;;5040859;28;20021;-74
2023/01/24 09:46:51;;;;;;;4.03;3.40;;;7.20;66.30;;;;;;5035013;28;20040;-76
2023/01/24 09:49:55;;;;;;;4.70;3.42;;;7.20;66.20;;;;;;5033879;28;20427;-85
2023/01/24 09:52:43;;;;;;;4.43;3.58;;;7.20;66.10;;;;;;5028345;28;20038;-79
2023/01/24 09:55:35;;;;;;;3.83;3.20;;;7.20;66.10;;;;;;5040921;28;20056;-70
2023/01/24 09:58:00;;;;;;;3.83;3.10;;;7.20;66.10;;;;;;5038969;28;20395;-71
2023/01/24 10:00:30;;;;;;;3.65;3.28;;;7.20;66.10;;;;;;5035065;28;20027;-74
2023/01/24 10:02:58;;;;;;;3.95;3.50;;;7.20;66.00;;;;;;5033745;28;20152;-72
2023/01/24 10:05:50;;;;;;;4.18;3.40;;;7.20;66.10;;;;;;5033962;28;20116;-75
2023/01/24 10:08:56;;;;;;;3.50;3.20;;;7.20;65.90;;;;;;5035078;28;20079;-75
2023/01/24 10:11:46;;;;;;;3.72;3.10;;;7.20;65.80;;;;;;5034036;28;20032;-75
2023/01/24 10:14:36;;;;;;;4.32;3.72;;;7.20;65.80;;;;;;5034869;28;20049;-70
2023/01/24 10:17:26;;;;;;;5.47;3.75;;;7.20;65.80;;;;;;5034857;28;20056;-71
2023/01/24 10:19:58;;;;;;;4.07;3.50;;;7.20;65.80;;;;;;5034760;28;20025;-70
2023/01/24 10:22:56;;;;;;;4.05;3.58;;;7.20;65.80;;;;;;5037097;28;20029;-71
2023/01/24 10:25:37;;;;;;;3.78;3.35;;;7.20;65.70;;;;;;5064404;28;20037;-72
2023/01/24 10:28:03;;;;;;;3.90;3.50;;;7.20;65.80;;;;;;5044344;28;20029;-70
2023/01/24 10:30:39;;;;;;;4.43;3.53;;;7.20;65.70;;;;;;5045224;28;20462;-70
2023/01/24 10:33:16;;;;;;;4.55;3.30;;;7.20;65.70;;;;;;5068920;28;20033;-76
2023/01/24 10:35:57;;;;;;;3.78;3.30;;;7.20;65.70;;;;;;5053908;28;20420;-69
2023/01/24 10:38:23;;;;;;;3.83;2.97;;;7.20;65.70;;;;;;5068001;28;20117;-71
2023/01/24 10:40:55;;;;;;;4.35;3.60;;;7.20;65.70;;;;;;5054134;28;20029;-69
2023/01/24 10:43:29;;;;;;;4.15;3.35;;;7.20;65.70;;;;;;5052350;28;20025;-70
2023/01/24 10:45:54;;;;;;;4.20;3.35;;;7.20;65.70;;;;;;5053366;28;20033;-70
2023/01/24 10:48:35;;;;;;;4.38;3.55;;;7.30;65.70;;;;;;5054818;28;20078;-71
2023/01/24 10:51:30;;;;;;;4.47;3.40;;;7.30;65.60;;;;;;5054631;28;20036;-70
2023/01/24 10:54:01;;;;;;;4.07;3.45;;;7.30;65.40;;;;;;5037688;28;20385;-70
2023/01/24 10:56:27;;;;;;;4.32;3.45;;;7.30;65.60;;;;;;5053288;28;20033;-71
2023/01/24 10:59:12;;;;;;;3.70;3.30;;;7.30;65.50;;;;;;5054743;28;20109;-70
2023/01/24 11:01:48;;;;;;;3.72;3.33;;;7.30;65.50;;;;;;5054630;28;20071;-69
2023/01/24 11:04:26;;;;;;;4.78;3.40;;;7.30;65.50;;;;;;5054611;28;20028;-70
2023/01/24 11:06:52;;;;;;;4.63;3.30;;;7.20;65.50;;;;;;5054745;28;20071;-69
2023/01/24 11:09:26;;;;;;;4.93;4.03;;;7.30;65.50;;;;;;5054567;28;20021;-69
2023/01/24 11:11:54;;;;;;;;;;;7.30;65.50;;;;;;5055127;28;20521;-69
2023/01/24 11:14:22;;;;;;;3.50;3.20;;;7.20;65.00;;;;;;5054092;28;19962;-69
2023/01/24 11:16:53;;;;;;;4.07;3.50;;;7.20;65.40;;;;;;5054798;28;20099;-70
2023/01/24 11:19:39;;;;;;;3.80;3.38;;;7.30;65.40;;;;;;5054137;28;20021;-70
2023/01/24 11:22:25;;;;;;;4.10;3.50;;;7.20;65.20;;;;;;5054157;28;20425;-70
2023/01/24 11:24:58;;;;;;;4.35;3.50;;;7.20;65.20;;;;;;5054166;28;20044;-71
2023/01/24 11:27:23;;;;;;;4.32;3.55;;;7.20;65.40;;;;;;5053893;28;20025;-70
2023/01/24 11:30:07;;;;;;;4.35;3.58;;;7.20;65.30;;;;;;5054020;28;20063;-70
2023/01/24 11:32:42;;;;;;;4.75;3.50;;;7.20;65.30;;;;;;5054398;28;20052;-69
2023/01/24 11:35:15;;;;;;;3.78;3.20;;;7.20;65.30;;;;;;5053672;28;20492;-69
2023/01/24 11:38:16;;;;;;;4.10;3.60;;;7.20;65.40;;;;;;5053962;28;20403;-69
2023/01/24 11:41:24;;;;;;;3.78;3.38;;;7.20;65.30;;;;;;5052882;28;20024;-70
2023/01/24 11:44:11;;;;;;;4.68;3.47;;;7.20;65.20;;;;;;5053870;28;20102;-70
2023/01/24 11:46:59;;;;;;;3.90;3.53;;;7.20;65.30;;;;;;5069706;28;20040;-70
2023/01/24 11:49:54;;;;;;;3.80;3.40;;;7.20;65.20;;;;;;5053717;28;20143;-70
2023/01/24 11:52:24;;;;;;;4.28;3.67;;;7.20;65.20;;;;;;5069025;28;20029;-70
2023/01/24 11:55:01;;;;;;;3.75;3.20;;;7.20;65.20;;;;;;5069062;28;20067;-69
2023/01/24 11:57:57;;;;;;;4.25;3.50;;;7.20;65.20;;;;;;5052498;28;20031;-70
2023/01/24 12:00:44;;;;;;;4.75;3.45;;;7.20;65.20;;;;;;5053818;28;20024;-70
2023/01/24 12:03:13;;;;;;;4.28;3.60;;;7.20;65.20;;;;;;5054432;28;20021;-70
2023/01/24 12:06:08;;;;;;;4.57;3.55;;;7.20;65.20;;;;;;5053576;28;20433;-70
2023/01/24 12:09:08;;;;;;;4.47;3.10;;;7.10;65.20;;;;;;5053883;28;20518;-70
